createdAt,value
2023-01-19T01:02:57.885Z,21.35
2023-01-19T01:59:52.111Z,17.00
2023-01-19T02:24:30.662Z,19.70
2023-01-19T02:57:50.463Z,26.50
2023-01-19T04:03:29.335Z,24.38
2023-01-19T04:15:13.502Z,22.00
2023-01-19T04:17:42.068Z,22.65
2023-01-19T04:20:10.983Z,24.02
2023-01-19T04:26:57.902Z,18.17
2023-01-19T04:29:26.225Z,23.30
2023-01-19T04:31:54.671Z,21.55
2023-01-19T04:34:22.868Z,23.40
2023-01-19T04:36:52.029Z,21.13
2023-01-19T04:39:20.702Z,28.27
2023-01-19T04:41:48.909Z,23.40
2023-01-19T04:44:17.233Z,18.35
2023-01-19T04:46:45.618Z,21.10
2023-01-19T04:49:13.987Z,24.30
2023-01-19T04:51:42.431Z,21.48
2023-01-19T04:54:10.887Z,23.05
2023-01-19T04:56:40.395Z,20.27
2023-01-19T04:59:08.598Z,19.60
2023-01-19T06:01:37.519Z,21.50
2023-01-19T06:59:28.188Z,24.85
2023-01-19T07:01:59.422Z,21.20
2023-01-19T07:04:27.358Z,21.73
2023-01-19T07:06:55.796Z,20.23
2023-01-19T07:09:25.685Z,21.45
2023-01-19T07:11:55.207Z,18.77
2023-01-19T07:14:23.287Z,19.10
2023-01-19T07:16:51.039Z,21.13
2023-01-19T07:19:19.208Z,20.45
2023-01-19T07:21:47.054Z,21.00
2023-01-19T07:24:15.128Z,18.55
2023-01-19T07:26:43.072Z,19.38
2023-01-19T07:29:15.234Z,24.05
2023-01-19T07:31:50.877Z,24.88
2023-01-19T07:34:26.893Z,22.40
2023-01-19T07:36:59.794Z,22.88
2023-01-19T07:39:36.950Z,21.67
2023-01-19T07:42:05.288Z,18.38
2023-01-19T07:44:35.548Z,21.10
2023-01-19T07:47:03.713Z,20.23
2023-01-19T07:49:31.579Z,21.88
2023-01-19T07:51:59.315Z,21.30
2023-01-19T07:54:27.004Z,24.50
2023-01-19T07:56:55.463Z,17.15
2023-01-19T07:59:23.276Z,16.67
2023-01-19T08:01:52.302Z,20.20
2023-01-19T08:04:20.620Z,19.50
2023-01-19T08:06:49.569Z,24.00
2023-01-19T08:09:17.436Z,22.83
2023-01-19T08:11:45.601Z,17.85
2023-01-19T08:14:13.321Z,18.95
2023-01-19T08:19:09.264Z,20.00
2023-01-19T08:21:39.108Z,21.10
2023-01-19T08:24:07.728Z,19.92
2023-01-19T08:26:36.254Z,17.25
2023-01-19T08:29:06.363Z,20.20
2023-01-19T08:31:34.412Z,21.35
2023-01-19T08:34:02.661Z,17.15
2023-01-19T08:36:30.785Z,19.05
2023-01-19T08:38:58.452Z,22.80
2023-01-19T08:41:27.186Z,19.45
2023-01-19T08:43:54.976Z,18.38
2023-01-19T08:46:27.406Z,16.52
2023-01-19T08:48:55.346Z,15.38
2023-01-19T08:51:23.286Z,21.17
2023-01-19T08:53:53.292Z,18.75
2023-01-19T08:56:21.750Z,18.17
2023-01-19T08:59:03.494Z,19.02
2023-01-19T09:01:40.499Z,18.33
2023-01-19T09:04:09.020Z,19.38
2023-01-19T09:06:37.099Z,19.55
2023-01-19T09:09:06.380Z,16.13
2023-01-19T09:11:35.537Z,14.68
2023-01-19T09:14:06.254Z,14.20
2023-01-19T09:16:34.943Z,15.10
2023-01-19T09:19:03.257Z,15.77
2023-01-19T09:21:31.587Z,15.02
2023-01-19T09:23:59.780Z,14.32
2023-01-19T09:26:28.342Z,16.30
2023-01-19T09:28:57.860Z,18.70
2023-01-19T09:31:26.890Z,18.20
2023-01-19T09:33:55.225Z,14.65
2023-01-19T09:36:23.537Z,15.75
2023-01-19T09:38:52.101Z,15.85
2023-01-19T09:41:22.758Z,18.02
2023-01-19T09:43:57.537Z,17.80
2023-01-19T09:46:41.618Z,16.58
2023-01-19T09:49:29.323Z,20.20
2023-01-19T09:51:57.995Z,15.45
2023-01-19T09:55:02.187Z,12.57
2023-01-19T09:57:36.987Z,16.63
2023-01-19T10:00:15.280Z,17.07
2023-01-19T10:02:47.852Z,13.50
2023-01-19T10:05:46.108Z,13.48
2023-01-19T10:08:56.673Z,15.20
2023-01-19T10:11:52.703Z,17.23
2023-01-19T10:14:40.594Z,14.68
2023-01-19T10:17:52.124Z,11.63
2023-01-19T10:20:33.769Z,16.23
2023-01-19T10:23:03.119Z,17.48
2023-01-19T10:25:34.417Z,16.85
2023-01-19T10:28:04.834Z,17.13
2023-01-19T10:30:33.429Z,14.02
2023-01-19T10:33:03.761Z,11.65
2023-01-19T10:35:32.312Z,16.45
2023-01-19T10:38:02.354Z,13.50
2023-01-19T10:40:58.986Z,11.65
2023-01-19T10:46:17.892Z,13.40
2023-01-19T10:48:49.337Z,13.77
2023-01-19T10:51:19.369Z,13.80
2023-01-19T10:54:07.481Z,13.23
2023-01-19T10:56:36.791Z,14.15
2023-01-19T10:59:07.062Z,15.43
2023-01-19T11:01:38.799Z,16.23
2023-01-19T11:04:27.208Z,13.55
2023-01-19T11:07:30.056Z,11.68
2023-01-19T11:10:23.210Z,14.02
2023-01-19T11:13:21.292Z,13.07
2023-01-19T11:15:51.657Z,16.33
2023-01-19T11:18:36.887Z,13.52
2023-01-19T11:21:25.833Z,14.68
2023-01-19T11:24:11.494Z,14.43
2023-01-19T11:26:59.225Z,15.35
2023-01-19T11:29:37.008Z,13.40
2023-01-19T11:32:34.034Z,15.55
2023-01-19T11:36:04.658Z,17.05
2023-01-19T11:38:58.278Z,12.43
2023-01-19T11:41:37.785Z,13.27
2023-01-19T11:44:36.178Z,14.38
2023-01-19T11:47:06.904Z,12.70
2023-01-19T11:49:54.231Z,13.15
2023-01-19T11:52:45.208Z,12.32
2023-01-19T11:55:49.286Z,13.80
2023-01-19T11:58:27.066Z,13.48
2023-01-19T12:01:26.202Z,13.35
2023-01-19T12:04:22.778Z,13.10
2023-01-19T12:06:59.168Z,13.77
2023-01-19T12:09:32.139Z,13.32
2023-01-19T12:12:18.568Z,13.65
2023-01-19T12:14:56.829Z,14.05
2023-01-19T12:17:38.396Z,14.82
2023-01-19T12:20:15.664Z,12.85
2023-01-19T12:22:54.810Z,12.38
2023-01-19T12:25:39.784Z,10.80
2023-01-19T12:28:16.182Z,10.45
2023-01-19T12:30:44.922Z,12.38
2023-01-19T12:33:41.823Z,13.80
2023-01-19T12:36:45.198Z,10.52
2023-01-19T12:39:12.903Z,14.95
2023-01-19T12:41:41.704Z,11.45
2023-01-19T12:44:12.453Z,11.30
2023-01-19T12:47:28.540Z,13.23
2023-01-19T12:50:14.840Z,15.38
2023-01-19T12:53:08.711Z,12.02
2023-01-19T12:56:02.029Z,12.60
2023-01-19T13:02:55.986Z,13.35
2023-01-19T13:08:15.577Z,12.32
2023-01-19T13:11:05.477Z,13.18
2023-01-19T13:13:42.373Z,13.95
2023-01-19T13:16:18.564Z,12.50
2023-01-19T13:18:56.041Z,12.32
2023-01-19T13:21:29.248Z,10.15
2023-01-19T13:23:59.077Z,11.32
2023-01-19T13:26:33.045Z,10.90
2023-01-19T13:29:08.084Z,12.20
2023-01-19T13:31:36.434Z,13.00
2023-01-19T13:34:04.596Z,12.50
2023-01-19T13:36:35.413Z,12.80
2023-01-19T13:39:06.262Z,13.43
2023-01-19T13:41:37.239Z,18.05
2023-01-19T13:44:08.451Z,11.38
2023-01-19T13:46:38.467Z,9.65
2023-01-19T13:49:19.775Z,12.15
2023-01-19T13:52:17.221Z,13.60
2023-01-19T13:54:50.916Z,12.80
2023-01-19T13:57:47.719Z,13.63
2023-01-19T14:00:21.377Z,17.00
2023-01-19T14:03:11.470Z,15.13
2023-01-19T14:05:40.423Z,14.00
2023-01-19T14:08:13.468Z,15.18
2023-01-19T14:10:44.211Z,13.07
2023-01-19T14:13:16.171Z,14.60
2023-01-19T14:15:44.157Z,12.77
2023-01-19T14:18:14.231Z,16.13
2023-01-19T14:20:41.938Z,11.70
2023-01-19T14:23:36.075Z,13.90
2023-01-19T14:26:03.361Z,15.70
2023-01-19T14:28:39.766Z,13.95
2023-01-19T14:31:24.357Z,16.38
2023-01-19T14:33:55.238Z,16.88
2023-01-19T14:36:27.075Z,13.55
2023-01-19T14:39:44.730Z,13.43
2023-01-19T15:00:18.218Z,15.95
2023-01-19T15:02:47.228Z,16.75
2023-01-19T15:05:40.314Z,19.90
2023-01-19T15:08:08.048Z,21.40
2023-01-19T16:56:32.160Z,19.10
2023-01-19T16:59:00.146Z,19.98
2023-01-19T17:10:43.627Z,19.35
2023-01-19T17:13:10.859Z,17.50
2023-01-19T17:15:38.133Z,21.85
2023-01-19T17:18:05.399Z,24.15
2023-01-19T17:24:46.548Z,17.95
2023-01-19T18:18:56.348Z,23.40
2023-01-19T18:21:27.337Z,26.17
2023-01-19T18:24:02.217Z,22.17
2023-01-19T18:26:30.277Z,20.23
2023-01-19T18:28:58.334Z,28.10
2023-01-19T18:31:27.064Z,25.73
2023-01-19T18:33:54.263Z,21.40
2023-01-19T18:36:21.488Z,25.08
2023-01-19T18:38:49.511Z,23.92
2023-01-19T18:41:19.057Z,21.17
2023-01-19T18:43:47.045Z,19.55
2023-01-19T18:46:15.268Z,21.65
2023-01-19T18:48:42.640Z,26.27
2023-01-19T18:51:12.064Z,23.55
2023-01-19T18:54:28.790Z,24.00
2023-01-19T18:56:55.914Z,24.02
2023-01-19T18:59:25.910Z,22.73
2023-01-19T19:02:58.407Z,24.80
2023-01-19T19:05:25.642Z,21.23
2023-01-19T19:07:52.858Z,21.02
2023-01-19T19:10:20.462Z,21.67
2023-01-19T19:25:44.418Z,23.38
2023-01-19T19:28:11.675Z,19.40
2023-01-19T19:48:53.853Z,19.02
2023-01-19T19:51:25.337Z,18.63
2023-01-19T20:38:06.876Z,21.80
2023-01-19T20:40:34.105Z,19.17
2023-01-19T20:43:20.375Z,24.08
2023-01-19T20:45:47.613Z,20.42
2023-01-19T20:48:14.821Z,17.48
2023-01-19T20:50:42.114Z,20.40
2023-01-19T20:58:23.104Z,19.80
2023-01-19T21:01:41.596Z,17.17
2023-01-19T21:05:08.342Z,21.25
2023-01-19T21:08:29.296Z,19.50
2023-01-19T21:10:57.290Z,18.17
2023-01-19T21:14:27.057Z,16.13
2023-01-19T22:21:35.588Z,17.30
2023-01-19T22:42:29.518Z,17.48
2023-01-19T22:44:56.679Z,17.17
2023-01-19T23:17:33.617Z,18.20
